sensor_id;sensor_type;location;lat;lon;timestamp;P1;durP1;ratioP1;P2;durP2;ratioP2
36827;SDS011;22766;48.042;11.192;2023-12-07T00:00:43;11.98;;;6.03;;
36827;SDS011;22766;48.042;11.192;2023-12-07T00:03:10;11.70;;;5.85;;
36827;SDS011;22766;48.042;11.192;2023-12-07T00:05:37;11.95;;;5.45;;
36827;SDS011;22766;48.042;11.192;2023-12-07T00:08:04;10.55;;;5.90;;
36827;SDS011;22766;48.042;11.192;2023-12-07T00:10:30;9.30;;;5.72;;
36827;SDS011;22766;48.042;11.192;2023-12-07T00:12:57;12.80;;;6.65;;
36827;SDS011;22766;48.042;11.192;2023-12-07T00:15:24;13.98;;;6.70;;
36827;SDS011;22766;48.042;11.192;2023-12-07T00:17:51;11.63;;;6.45;;
36827;SDS011;22766;48.042;11.192;2023-12-07T00:20:18;10.55;;;6.03;;
36827;SDS011;22766;48.042;11.192;2023-12-07T00:22:44;10.60;;;5.88;;
36827;SDS011;22766;48.042;11.192;2023-12-07T00:25:12;11.10;;;6.15;;
36827;SDS011;22766;48.042;11.192;2023-12-07T00:27:39;12.80;;;7.07;;
36827;SDS011;22766;48.042;11.192;2023-12-07T00:30:06;11.13;;;6.10;;
36827;SDS011;22766;48.042;11.192;2023-12-07T00:32:33;10.88;;;6.38;;
36827;SDS011;22766;48.042;11.192;2023-12-07T00:35:00;13.77;;;6.70;;
36827;SDS011;22766;48.042;11.192;2023-12-07T00:37:26;10.32;;;5.70;;
36827;SDS011;22766;48.042;11.192;2023-12-07T00:39:53;11.35;;;5.35;;
36827;SDS011;22766;48.042;11.192;2023-12-07T00:42:20;12.30;;;6.65;;
36827;SDS011;22766;48.042;11.192;2023-12-07T00:44:47;13.10;;;5.68;;
36827;SDS011;22766;48.042;11.192;2023-12-07T00:47:14;9.23;;;5.28;;
36827;SDS011;22766;48.042;11.192;2023-12-07T00:49:41;9.25;;;5.20;;
36827;SDS011;22766;48.042;11.192;2023-12-07T00:52:08;11.60;;;5.55;;
36827;SDS011;22766;48.042;11.192;2023-12-07T00:54:35;10.38;;;5.43;;
36827;SDS011;22766;48.042;11.192;2023-12-07T00:57:02;9.35;;;5.40;;
36827;SDS011;22766;48.042;11.192;2023-12-07T00:59:29;9.63;;;5.50;;
36827;SDS011;22766;48.042;11.192;2023-12-07T01:02:00;9.45;;;5.70;;
36827;SDS011;22766;48.042;11.192;2023-12-07T01:04:28;12.73;;;5.90;;
36827;SDS011;22766;48.042;11.192;2023-12-07T01:06:56;9.90;;;5.78;;
36827;SDS011;22766;48.042;11.192;2023-12-07T01:09:23;10.00;;;5.57;;
36827;SDS011;22766;48.042;11.192;2023-12-07T01:11:50;16.60;;;6.70;;
36827;SDS011;22766;48.042;11.192;2023-12-07T01:14:17;12.75;;;6.07;;
36827;SDS011;22766;48.042;11.192;2023-12-07T01:16:44;10.77;;;6.13;;
36827;SDS011;22766;48.042;11.192;2023-12-07T01:19:11;12.02;;;5.40;;
36827;SDS011;22766;48.042;11.192;2023-12-07T01:21:41;13.40;;;6.13;;
36827;SDS011;22766;48.042;11.192;2023-12-07T01:24:08;12.07;;;6.10;;
36827;SDS011;22766;48.042;11.192;2023-12-07T01:26:42;9.93;;;5.50;;
36827;SDS011;22766;48.042;11.192;2023-12-07T01:29:09;11.65;;;5.38;;
36827;SDS011;22766;48.042;11.192;2023-12-07T01:31:35;11.32;;;5.57;;
36827;SDS011;22766;48.042;11.192;2023-12-07T01:34:02;11.23;;;6.18;;
36827;SDS011;22766;48.042;11.192;2023-12-07T01:36:29;11.13;;;5.93;;
36827;SDS011;22766;48.042;11.192;2023-12-07T01:38:56;10.07;;;6.43;;
36827;SDS011;22766;48.042;11.192;2023-12-07T01:41:23;11.35;;;5.82;;
36827;SDS011;22766;48.042;11.192;2023-12-07T01:43:50;11.05;;;5.95;;
36827;SDS011;22766;48.042;11.192;2023-12-07T01:46:17;10.00;;;5.75;;
36827;SDS011;22766;48.042;11.192;2023-12-07T01:48:45;9.98;;;5.95;;
36827;SDS011;22766;48.042;11.192;2023-12-07T01:51:16;11.68;;;5.97;;
36827;SDS011;22766;48.042;11.192;2023-12-07T01:53:44;13.00;;;6.18;;
36827;SDS011;22766;48.042;11.192;2023-12-07T01:56:11;10.85;;;5.78;;
36827;SDS011;22766;48.042;11.192;2023-12-07T01:58:38;10.75;;;6.85;;
36827;SDS011;22766;48.042;11.192;2023-12-07T02:01:05;11.15;;;5.93;;
36827;SDS011;22766;48.042;11.192;2023-12-07T02:03:32;10.13;;;6.20;;
36827;SDS011;22766;48.042;11.192;2023-12-07T02:05:59;15.15;;;6.18;;
36827;SDS011;22766;48.042;11.192;2023-12-07T02:08:27;11.55;;;6.05;;
36827;SDS011;22766;48.042;11.192;2023-12-07T02:10:54;11.73;;;6.80;;
36827;SDS011;22766;48.042;11.192;2023-12-07T02:13:21;14.15;;;6.45;;
36827;SDS011;22766;48.042;11.192;2023-12-07T02:15:48;10.05;;;6.32;;
36827;SDS011;22766;48.042;11.192;2023-12-07T02:21:28;14.52;;;6.72;;
36827;SDS011;22766;48.042;11.192;2023-12-07T02:24:00;10.55;;;5.38;;
36827;SDS011;22766;48.042;11.192;2023-12-07T02:26:38;11.00;;;5.57;;
36827;SDS011;22766;48.042;11.192;2023-12-07T02:29:05;15.93;;;6.43;;
36827;SDS011;22766;48.042;11.192;2023-12-07T02:31:32;12.85;;;5.82;;
36827;SDS011;22766;48.042;11.192;2023-12-07T02:34:00;11.57;;;5.93;;
36827;SDS011;22766;48.042;11.192;2023-12-07T02:36:27;11.63;;;6.55;;
36827;SDS011;22766;48.042;11.192;2023-12-07T02:38:58;12.70;;;6.75;;
36827;SDS011;22766;48.042;11.192;2023-12-07T02:41:28;11.30;;;6.03;;
36827;SDS011;22766;48.042;11.192;2023-12-07T02:43:57;11.95;;;6.68;;
36827;SDS011;22766;48.042;11.192;2023-12-07T02:46:25;11.82;;;5.82;;
36827;SDS011;22766;48.042;11.192;2023-12-07T02:48:52;11.98;;;6.07;;
36827;SDS011;22766;48.042;11.192;2023-12-07T02:51:19;9.07;;;4.97;;
36827;SDS011;22766;48.042;11.192;2023-12-07T02:53:46;12.43;;;6.07;;
36827;SDS011;22766;48.042;11.192;2023-12-07T02:56:13;10.20;;;5.55;;
36827;SDS011;22766;48.042;11.192;2023-12-07T02:58:39;15.15;;;5.78;;
36827;SDS011;22766;48.042;11.192;2023-12-07T03:01:06;10.73;;;6.43;;
36827;SDS011;22766;48.042;11.192;2023-12-07T03:03:34;10.27;;;6.03;;
36827;SDS011;22766;48.042;11.192;2023-12-07T03:06:01;10.32;;;5.50;;
36827;SDS011;22766;48.042;11.192;2023-12-07T03:08:28;11.13;;;6.07;;
36827;SDS011;22766;48.042;11.192;2023-12-07T03:10:55;10.55;;;5.55;;
36827;SDS011;22766;48.042;11.192;2023-12-07T03:13:22;10.05;;;5.50;;
36827;SDS011;22766;48.042;11.192;2023-12-07T03:15:48;10.18;;;5.35;;
36827;SDS011;22766;48.042;11.192;2023-12-07T03:18:15;10.98;;;6.47;;
36827;SDS011;22766;48.042;11.192;2023-12-07T03:20:42;11.20;;;6.13;;
36827;SDS011;22766;48.042;11.192;2023-12-07T03:23:09;11.88;;;6.10;;
36827;SDS011;22766;48.042;11.192;2023-12-07T03:25:36;10.68;;;5.55;;
36827;SDS011;22766;48.042;11.192;2023-12-07T03:28:03;11.95;;;5.35;;
36827;SDS011;22766;48.042;11.192;2023-12-07T03:30:30;8.45;;;4.35;;
36827;SDS011;22766;48.042;11.192;2023-12-07T03:32:56;8.30;;;5.10;;
36827;SDS011;22766;48.042;11.192;2023-12-07T03:35:24;10.10;;;5.00;;
36827;SDS011;22766;48.042;11.192;2023-12-07T03:37:50;9.98;;;5.13;;
36827;SDS011;22766;48.042;11.192;2023-12-07T03:40:17;12.27;;;5.47;;
36827;SDS011;22766;48.042;11.192;2023-12-07T03:42:44;8.68;;;4.78;;
36827;SDS011;22766;48.042;11.192;2023-12-07T03:45:22;10.48;;;5.22;;
36827;SDS011;22766;48.042;11.192;2023-12-07T03:47:49;8.00;;;5.20;;
36827;SDS011;22766;48.042;11.192;2023-12-07T03:50:16;9.82;;;5.38;;
36827;SDS011;22766;48.042;11.192;2023-12-07T03:52:43;8.55;;;5.10;;
36827;SDS011;22766;48.042;11.192;2023-12-07T03:55:09;8.57;;;4.55;;
36827;SDS011;22766;48.042;11.192;2023-12-07T03:57:37;11.95;;;5.07;;
36827;SDS011;22766;48.042;11.192;2023-12-07T04:00:05;9.95;;;5.72;;
36827;SDS011;22766;48.042;11.192;2023-12-07T04:05:02;9.90;;;4.88;;
36827;SDS011;22766;48.042;11.192;2023-12-07T04:07:29;10.57;;;5.28;;
36827;SDS011;22766;48.042;11.192;2023-12-07T04:09:56;12.57;;;5.72;;
36827;SDS011;22766;48.042;11.192;2023-12-07T04:12:23;10.40;;;5.45;;
36827;SDS011;22766;48.042;11.192;2023-12-07T04:14:51;8.60;;;4.85;;
36827;SDS011;22766;48.042;11.192;2023-12-07T04:17:20;8.23;;;4.72;;
36827;SDS011;22766;48.042;11.192;2023-12-07T04:19:47;9.07;;;4.85;;
36827;SDS011;22766;48.042;11.192;2023-12-07T04:22:14;10.77;;;5.50;;
36827;SDS011;22766;48.042;11.192;2023-12-07T04:24:41;13.82;;;5.28;;
36827;SDS011;22766;48.042;11.192;2023-12-07T04:27:08;11.13;;;5.50;;
36827;SDS011;22766;48.042;11.192;2023-12-07T04:29:35;11.43;;;4.93;;
36827;SDS011;22766;48.042;11.192;2023-12-07T04:32:02;8.82;;;4.63;;
36827;SDS011;22766;48.042;11.192;2023-12-07T04:34:29;10.48;;;5.38;;
36827;SDS011;22766;48.042;11.192;2023-12-07T04:36:56;9.57;;;4.82;;
36827;SDS011;22766;48.042;11.192;2023-12-07T04:39:23;12.55;;;4.97;;
36827;SDS011;22766;48.042;11.192;2023-12-07T04:41:50;7.63;;;4.63;;
36827;SDS011;22766;48.042;11.192;2023-12-07T04:44:17;8.00;;;4.72;;
36827;SDS011;22766;48.042;11.192;2023-12-07T04:46:45;7.65;;;4.57;;
36827;SDS011;22766;48.042;11.192;2023-12-07T04:49:12;8.77;;;5.40;;
36827;SDS011;22766;48.042;11.192;2023-12-07T04:51:39;7.82;;;4.75;;
36827;SDS011;22766;48.042;11.192;2023-12-07T04:54:08;9.80;;;5.25;;
36827;SDS011;22766;48.042;11.192;2023-12-07T04:56:45;6.40;;;3.78;;
36827;SDS011;22766;48.042;11.192;2023-12-07T04:59:11;9.75;;;3.92;;
36827;SDS011;22766;48.042;11.192;2023-12-07T05:01:38;8.50;;;4.38;;
36827;SDS011;22766;48.042;11.192;2023-12-07T05:04:06;6.72;;;4.18;;
36827;SDS011;22766;48.042;11.192;2023-12-07T05:06:33;10.63;;;5.05;;
36827;SDS011;22766;48.042;11.192;2023-12-07T05:09:00;7.47;;;4.32;;
36827;SDS011;22766;48.042;11.192;2023-12-07T05:11:27;11.23;;;5.45;;
36827;SDS011;22766;48.042;11.192;2023-12-07T05:13:53;9.25;;;5.28;;
36827;SDS011;22766;48.042;11.192;2023-12-07T05:16:21;9.88;;;5.50;;
36827;SDS011;22766;48.042;11.192;2023-12-07T05:18:47;12.90;;;6.82;;
36827;SDS011;22766;48.042;11.192;2023-12-07T05:21:14;9.48;;;5.00;;
36827;SDS011;22766;48.042;11.192;2023-12-07T05:23:41;10.27;;;5.90;;
36827;SDS011;22766;48.042;11.192;2023-12-07T05:26:07;13.18;;;6.63;;
36827;SDS011;22766;48.042;11.192;2023-12-07T05:28:35;12.32;;;6.75;;
36827;SDS011;22766;48.042;11.192;2023-12-07T05:31:03;16.60;;;9.02;;
36827;SDS011;22766;48.042;11.192;2023-12-07T05:33:29;13.43;;;7.93;;
36827;SDS011;22766;48.042;11.192;2023-12-07T05:35:56;9.63;;;4.65;;
36827;SDS011;22766;48.042;11.192;2023-12-07T05:38:23;8.07;;;5.15;;
36827;SDS011;22766;48.042;11.192;2023-12-07T05:40:50;9.02;;;4.57;;
36827;SDS011;22766;48.042;11.192;2023-12-07T05:43:16;10.82;;;5.93;;
36827;SDS011;22766;48.042;11.192;2023-12-07T05:45:45;12.80;;;6.32;;
36827;SDS011;22766;48.042;11.192;2023-12-07T05:48:12;12.48;;;6.25;;
36827;SDS011;22766;48.042;11.192;2023-12-07T05:50:40;12.63;;;6.28;;
36827;SDS011;22766;48.042;11.192;2023-12-07T05:53:07;11.25;;;6.53;;
36827;SDS011;22766;48.042;11.192;2023-12-07T05:55:33;14.23;;;6.63;;
36827;SDS011;22766;48.042;11.192;2023-12-07T05:58:00;12.45;;;6.32;;
36827;SDS011;22766;48.042;11.192;2023-12-07T06:00:27;16.58;;;7.57;;
36827;SDS011;22766;48.042;11.192;2023-12-07T06:02:54;10.88;;;6.35;;
36827;SDS011;22766;48.042;11.192;2023-12-07T06:05:20;13.02;;;6.68;;
36827;SDS011;22766;48.042;11.192;2023-12-07T06:07:48;8.88;;;5.00;;
36827;SDS011;22766;48.042;11.192;2023-12-07T06:10:14;7.75;;;5.15;;
36827;SDS011;22766;48.042;11.192;2023-12-07T06:12:41;11.45;;;5.35;;
36827;SDS011;22766;48.042;11.192;2023-12-07T06:15:09;11.48;;;5.70;;
36827;SDS011;22766;48.042;11.192;2023-12-07T06:17:36;14.60;;;6.97;;
36827;SDS011;22766;48.042;11.192;2023-12-07T06:20:03;14.60;;;7.80;;
36827;SDS011;22766;48.042;11.192;2023-12-07T06:22:30;15.32;;;8.15;;
36827;SDS011;22766;48.042;11.192;2023-12-07T06:24:57;13.00;;;6.85;;
36827;SDS011;22766;48.042;11.192;2023-12-07T06:27:24;14.27;;;6.50;;
36827;SDS011;22766;48.042;11.192;2023-12-07T06:29:51;12.32;;;5.78;;
36827;SDS011;22766;48.042;11.192;2023-12-07T06:32:17;13.55;;;6.68;;
36827;SDS011;22766;48.042;11.192;2023-12-07T06:34:44;14.02;;;6.80;;
36827;SDS011;22766;48.042;11.192;2023-12-07T06:37:11;9.05;;;5.65;;
36827;SDS011;22766;48.042;11.192;2023-12-07T06:39:38;10.27;;;5.78;;
36827;SDS011;22766;48.042;11.192;2023-12-07T06:42:05;15.27;;;6.38;;
36827;SDS011;22766;48.042;11.192;2023-12-07T06:44:32;13.70;;;7.63;;
36827;SDS011;22766;48.042;11.192;2023-12-07T06:46:59;14.13;;;6.43;;
36827;SDS011;22766;48.042;11.192;2023-12-07T06:49:29;15.57;;;7.03;;
36827;SDS011;22766;48.042;11.192;2023-12-07T06:52:12;11.95;;;6.50;;
36827;SDS011;22766;48.042;11.192;2023-12-07T06:54:39;21.58;;;9.43;;
36827;SDS011;22766;48.042;11.192;2023-12-07T06:57:06;24.40;;;9.07;;
36827;SDS011;22766;48.042;11.192;2023-12-07T06:59:33;20.92;;;7.68;;
36827;SDS011;22766;48.042;11.192;2023-12-07T07:02:00;14.75;;;7.38;;
36827;SDS011;22766;48.042;11.192;2023-12-07T07:04:27;17.63;;;8.02;;
36827;SDS011;22766;48.042;11.192;2023-12-07T07:06:54;12.80;;;6.28;;
36827;SDS011;22766;48.042;11.192;2023-12-07T07:09:20;10.02;;;4.88;;
36827;SDS011;22766;48.042;11.192;2023-12-07T07:11:48;11.90;;;5.43;;
36827;SDS011;22766;48.042;11.192;2023-12-07T07:14:15;12.35;;;6.68;;
36827;SDS011;22766;48.042;11.192;2023-12-07T07:16:43;17.15;;;6.97;;
36827;SDS011;22766;48.042;11.192;2023-12-07T07:19:10;16.38;;;6.90;;
36827;SDS011;22766;48.042;11.192;2023-12-07T07:21:38;12.57;;;7.22;;
36827;SDS011;22766;48.042;11.192;2023-12-07T07:24:04;13.45;;;7.43;;
36827;SDS011;22766;48.042;11.192;2023-12-07T07:26:33;12.30;;;6.75;;
36827;SDS011;22766;48.042;11.192;2023-12-07T07:29:00;10.05;;;5.93;;
36827;SDS011;22766;48.042;11.192;2023-12-07T07:31:27;11.75;;;6.32;;
36827;SDS011;22766;48.042;11.192;2023-12-07T07:33:54;15.48;;;7.75;;
36827;SDS011;22766;48.042;11.192;2023-12-07T07:36:26;13.52;;;7.10;;
36827;SDS011;22766;48.042;11.192;2023-12-07T07:38:54;9.43;;;6.65;;
36827;SDS011;22766;48.042;11.192;2023-12-07T07:41:21;12.25;;;6.53;;
36827;SDS011;22766;48.042;11.192;2023-12-07T07:43:48;9.77;;;6.50;;
36827;SDS011;22766;48.042;11.192;2023-12-07T07:46:15;9.13;;;6.40;;
36827;SDS011;22766;48.042;11.192;2023-12-07T07:48:42;10.93;;;6.25;;
36827;SDS011;22766;48.042;11.192;2023-12-07T07:51:09;12.65;;;6.97;;
36827;SDS011;22766;48.042;11.192;2023-12-07T07:53:35;5.93;;;4.15;;
36827;SDS011;22766;48.042;11.192;2023-12-07T07:56:02;7.72;;;5.22;;
36827;SDS011;22766;48.042;11.192;2023-12-07T07:58:29;14.60;;;7.32;;
36827;SDS011;22766;48.042;11.192;2023-12-07T08:00:56;10.63;;;6.22;;
36827;SDS011;22766;48.042;11.192;2023-12-07T08:03:22;11.70;;;7.15;;
36827;SDS011;22766;48.042;11.192;2023-12-07T08:05:50;11.43;;;6.97;;
36827;SDS011;22766;48.042;11.192;2023-12-07T08:08:16;8.05;;;5.38;;
36827;SDS011;22766;48.042;11.192;2023-12-07T08:10:43;12.55;;;7.25;;
36827;SDS011;22766;48.042;11.192;2023-12-07T08:13:21;12.20;;;6.65;;
36827;SDS011;22766;48.042;11.192;2023-12-07T08:15:48;15.73;;;7.50;;
36827;SDS011;22766;48.042;11.192;2023-12-07T08:18:15;10.98;;;7.28;;
36827;SDS011;22766;48.042;11.192;2023-12-07T08:20:42;11.85;;;7.10;;
36827;SDS011;22766;48.042;11.192;2023-12-07T08:23:09;13.70;;;6.95;;
36827;SDS011;22766;48.042;11.192;2023-12-07T08:25:38;11.32;;;5.70;;
36827;SDS011;22766;48.042;11.192;2023-12-07T08:28:06;8.82;;;5.32;;
36827;SDS011;22766;48.042;11.192;2023-12-07T08:30:36;7.63;;;5.28;;
36827;SDS011;22766;48.042;11.192;2023-12-07T08:33:02;11.18;;;6.18;;
36827;SDS011;22766;48.042;11.192;2023-12-07T08:35:30;12.00;;;6.35;;
36827;SDS011;22766;48.042;11.192;2023-12-07T08:37:56;27.05;;;14.88;;
36827;SDS011;22766;48.042;11.192;2023-12-07T08:40:23;14.18;;;7.20;;
36827;SDS011;22766;48.042;11.192;2023-12-07T08:42:50;8.95;;;5.35;;
36827;SDS011;22766;48.042;11.192;2023-12-07T08:45:18;9.48;;;5.35;;
36827;SDS011;22766;48.042;11.192;2023-12-07T08:47:45;12.27;;;6.63;;
36827;SDS011;22766;48.042;11.192;2023-12-07T08:50:12;14.07;;;7.45;;
36827;SDS011;22766;48.042;11.192;2023-12-07T08:52:39;15.27;;;8.25;;
36827;SDS011;22766;48.042;11.192;2023-12-07T08:55:15;9.38;;;6.00;;
36827;SDS011;22766;48.042;11.192;2023-12-07T08:57:42;10.63;;;5.78;;
36827;SDS011;22766;48.042;11.192;2023-12-07T09:00:09;10.07;;;5.20;;
36827;SDS011;22766;48.042;11.192;2023-12-07T09:02:39;10.20;;;5.80;;
36827;SDS011;22766;48.042;11.192;2023-12-07T09:05:13;9.80;;;5.22;;
36827;SDS011;22766;48.042;11.192;2023-12-07T09:07:40;8.65;;;5.10;;
36827;SDS011;22766;48.042;11.192;2023-12-07T09:10:07;9.60;;;5.13;;
36827;SDS011;22766;48.042;11.192;2023-12-07T09:12:35;9.10;;;5.20;;
36827;SDS011;22766;48.042;11.192;2023-12-07T09:15:05;8.32;;;4.38;;
36827;SDS011;22766;48.042;11.192;2023-12-07T09:17:37;5.90;;;4.00;;
36827;SDS011;22766;48.042;11.192;2023-12-07T09:20:06;7.10;;;4.45;;
36827;SDS011;22766;48.042;11.192;2023-12-07T09:22:42;10.00;;;5.05;;
36827;SDS011;22766;48.042;11.192;2023-12-07T09:25:10;9.25;;;4.72;;
36827;SDS011;22766;48.042;11.192;2023-12-07T09:27:38;12.15;;;5.93;;
36827;SDS011;22766;48.042;11.192;2023-12-07T09:30:06;9.55;;;5.43;;
36827;SDS011;22766;48.042;11.192;2023-12-07T09:32:41;9.13;;;5.00;;
36827;SDS011;22766;48.042;11.192;2023-12-07T09:35:11;7.72;;;4.20;;
36827;SDS011;22766;48.042;11.192;2023-12-07T09:37:48;9.90;;;5.05;;
36827;SDS011;22766;48.042;11.192;2023-12-07T09:40:16;10.57;;;5.05;;
36827;SDS011;22766;48.042;11.192;2023-12-07T09:42:48;10.43;;;5.25;;
36827;SDS011;22766;48.042;11.192;2023-12-07T09:45:15;10.60;;;5.68;;
36827;SDS011;22766;48.042;11.192;2023-12-07T09:47:49;8.07;;;5.20;;
36827;SDS011;22766;48.042;11.192;2023-12-07T09:50:26;7.85;;;4.55;;
36827;SDS011;22766;48.042;11.192;2023-12-07T09:52:57;8.70;;;4.60;;
36827;SDS011;22766;48.042;11.192;2023-12-07T09:55:34;6.55;;;4.15;;
36827;SDS011;22766;48.042;11.192;2023-12-07T09:58:04;6.20;;;3.47;;
36827;SDS011;22766;48.042;11.192;2023-12-07T10:00:33;7.80;;;4.68;;
36827;SDS011;22766;48.042;11.192;2023-12-07T10:03:00;7.88;;;4.22;;
36827;SDS011;22766;48.042;11.192;2023-12-07T10:05:27;9.52;;;4.43;;
36827;SDS011;22766;48.042;11.192;2023-12-07T10:07:55;6.22;;;4.20;;
36827;SDS011;22766;48.042;11.192;2023-12-07T10:10:21;7.63;;;4.80;;
36827;SDS011;22766;48.042;11.192;2023-12-07T10:12:55;9.75;;;4.43;;
36827;SDS011;22766;48.042;11.192;2023-12-07T10:15:25;6.28;;;4.07;;
36827;SDS011;22766;48.042;11.192;2023-12-07T10:17:56;10.10;;;4.20;;
36827;SDS011;22766;48.042;11.192;2023-12-07T10:20:26;6.95;;;3.72;;
36827;SDS011;22766;48.042;11.192;2023-12-07T10:23:03;6.65;;;3.60;;
36827;SDS011;22766;48.042;11.192;2023-12-07T10:25:38;5.68;;;3.47;;
36827;SDS011;22766;48.042;11.192;2023-12-07T10:28:07;4.75;;;3.45;;
36827;SDS011;22766;48.042;11.192;2023-12-07T10:30:36;5.50;;;3.50;;
36827;SDS011;22766;48.042;11.192;2023-12-07T10:33:06;6.15;;;3.90;;
36827;SDS011;22766;48.042;11.192;2023-12-07T10:35:40;6.03;;;3.42;;
36827;SDS011;22766;48.042;11.192;2023-12-07T10:38:09;4.90;;;3.72;;
36827;SDS011;22766;48.042;11.192;2023-12-07T10:40:36;4.85;;;3.58;;
36827;SDS011;22766;48.042;11.192;2023-12-07T10:43:04;4.97;;;3.40;;
36827;SDS011;22766;48.042;11.192;2023-12-07T10:45:33;4.72;;;3.53;;
36827;SDS011;22766;48.042;11.192;2023-12-07T10:48:07;5.10;;;3.38;;
36827;SDS011;22766;48.042;11.192;2023-12-07T10:50:36;5.75;;;3.63;;
36827;SDS011;22766;48.042;11.192;2023-12-07T10:53:19;3.85;;;2.17;;
36827;SDS011;22766;48.042;11.192;2023-12-07T10:55:55;4.45;;;2.97;;
36827;SDS011;22766;48.042;11.192;2023-12-07T10:58:23;4.82;;;2.83;;
36827;SDS011;22766;48.042;11.192;2023-12-07T11:00:54;6.30;;;3.00;;
36827;SDS011;22766;48.042;11.192;2023-12-07T11:03:22;5.63;;;3.65;;
36827;SDS011;22766;48.042;11.192;2023-12-07T11:05:50;6.53;;;2.92;;
36827;SDS011;22766;48.042;11.192;2023-12-07T11:08:38;6.82;;;3.00;;
36827;SDS011;22766;48.042;11.192;2023-12-07T11:11:10;3.97;;;2.53;;
36827;SDS011;22766;48.042;11.192;2023-12-07T11:13:49;2.38;;;1.50;;
36827;SDS011;22766;48.042;11.192;2023-12-07T11:16:36;3.75;;;2.13;;
36827;SDS011;22766;48.042;11.192;2023-12-07T11:19:04;3.78;;;2.13;;
36827;SDS011;22766;48.042;11.192;2023-12-07T11:21:34;6.15;;;2.38;;
36827;SDS011;22766;48.042;11.192;2023-12-07T11:24:03;3.83;;;2.60;;
36827;SDS011;22766;48.042;11.192;2023-12-07T11:26:33;3.97;;;1.67;;
36827;SDS011;22766;48.042;11.192;2023-12-07T11:29:01;1.45;;;1.10;;
36827;SDS011;22766;48.042;11.192;2023-12-07T11:31:28;1.75;;;1.02;;
36827;SDS011;22766;48.042;11.192;2023-12-07T11:33:54;2.13;;;1.38;;
36827;SDS011;22766;48.042;11.192;2023-12-07T11:36:22;2.60;;;1.20;;
36827;SDS011;22766;48.042;11.192;2023-12-07T11:41:34;3.05;;;1.10;;
36827;SDS011;22766;48.042;11.192;2023-12-07T11:44:01;2.60;;;1.20;;
36827;SDS011;22766;48.042;11.192;2023-12-07T11:46:29;4.28;;;1.98;;
36827;SDS011;22766;48.042;11.192;2023-12-07T11:48:56;4.22;;;1.25;;
36827;SDS011;22766;48.042;11.192;2023-12-07T11:51:25;1.63;;;0.98;;
36827;SDS011;22766;48.042;11.192;2023-12-07T11:53:53;1.92;;;1.10;;
36827;SDS011;22766;48.042;11.192;2023-12-07T11:56:19;2.15;;;1.10;;
36827;SDS011;22766;48.042;11.192;2023-12-07T11:58:48;2.75;;;1.42;;
36827;SDS011;22766;48.042;11.192;2023-12-07T12:01:16;2.22;;;1.20;;
36827;SDS011;22766;48.042;11.192;2023-12-07T12:03:47;2.20;;;1.42;;
36827;SDS011;22766;48.042;11.192;2023-12-07T12:06:14;2.05;;;1.20;;
36827;SDS011;22766;48.042;11.192;2023-12-07T12:08:41;2.38;;;1.15;;
36827;SDS011;22766;48.042;11.192;2023-12-07T12:11:09;1.35;;;0.98;;
36827;SDS011;22766;48.042;11.192;2023-12-07T12:13:36;2.63;;;1.27;;
36827;SDS011;22766;48.042;11.192;2023-12-07T12:16:05;1.30;;;0.90;;
36827;SDS011;22766;48.042;11.192;2023-12-07T12:18:33;2.58;;;1.30;;
36827;SDS011;22766;48.042;11.192;2023-12-07T12:21:01;3.42;;;1.20;;
36827;SDS011;22766;48.042;11.192;2023-12-07T12:23:28;1.67;;;1.05;;
36827;SDS011;22766;48.042;11.192;2023-12-07T12:25:58;2.67;;;0.88;;
36827;SDS011;22766;48.042;11.192;2023-12-07T12:28:25;1.15;;;1.02;;
36827;SDS011;22766;48.042;11.192;2023-12-07T12:30:52;3.10;;;1.48;;
36827;SDS011;22766;48.042;11.192;2023-12-07T12:33:21;2.08;;;1.33;;
36827;SDS011;22766;48.042;11.192;2023-12-07T12:36:00;4.97;;;1.42;;
36827;SDS011;22766;48.042;11.192;2023-12-07T12:38:31;2.50;;;1.40;;
36827;SDS011;22766;48.042;11.192;2023-12-07T12:41:08;2.85;;;1.23;;
36827;SDS011;22766;48.042;11.192;2023-12-07T12:43:35;2.47;;;1.50;;
36827;SDS011;22766;48.042;11.192;2023-12-07T12:46:02;1.88;;;0.65;;
36827;SDS011;22766;48.042;11.192;2023-12-07T12:48:32;1.40;;;1.02;;
36827;SDS011;22766;48.042;11.192;2023-12-07T12:51:12;2.08;;;1.27;;
36827;SDS011;22766;48.042;11.192;2023-12-07T12:53:46;3.78;;;0.98;;
36827;SDS011;22766;48.042;11.192;2023-12-07T12:56:18;2.10;;;0.82;;
36827;SDS011;22766;48.042;11.192;2023-12-07T12:58:47;3.35;;;1.42;;
36827;SDS011;22766;48.042;11.192;2023-12-07T13:01:16;2.72;;;0.95;;
36827;SDS011;22766;48.042;11.192;2023-12-07T13:03:44;2.05;;;1.00;;
36827;SDS011;22766;48.042;11.192;2023-12-07T13:06:14;1.52;;;1.00;;
36827;SDS011;22766;48.042;11.192;2023-12-07T13:08:45;1.40;;;0.80;;
36827;SDS011;22766;48.042;11.192;2023-12-07T13:13:46;1.65;;;0.80;;
36827;SDS011;22766;48.042;11.192;2023-12-07T13:16:14;3.40;;;1.00;;
36827;SDS011;22766;48.042;11.192;2023-12-07T13:18:42;6.43;;;1.15;;
36827;SDS011;22766;48.042;11.192;2023-12-07T13:21:09;2.08;;;1.23;;
36827;SDS011;22766;48.042;11.192;2023-12-07T13:23:37;2.60;;;1.10;;
36827;SDS011;22766;48.042;11.192;2023-12-07T13:26:03;3.13;;;1.02;;
36827;SDS011;22766;48.042;11.192;2023-12-07T13:28:33;2.00;;;1.10;;
36827;SDS011;22766;48.042;11.192;2023-12-07T13:31:00;4.00;;;1.17;;
36827;SDS011;22766;48.042;11.192;2023-12-07T13:33:27;2.20;;;0.90;;
36827;SDS011;22766;48.042;11.192;2023-12-07T13:35:59;1.45;;;0.70;;
36827;SDS011;22766;48.042;11.192;2023-12-07T13:38:37;1.42;;;0.93;;
36827;SDS011;22766;48.042;11.192;2023-12-07T13:41:03;1.27;;;1.00;;
36827;SDS011;22766;48.042;11.192;2023-12-07T13:43:30;0.90;;;0.70;;
36827;SDS011;22766;48.042;11.192;2023-12-07T13:45:59;2.47;;;0.95;;
36827;SDS011;22766;48.042;11.192;2023-12-07T13:48:26;2.20;;;1.10;;
36827;SDS011;22766;48.042;11.192;2023-12-07T13:50:53;1.75;;;1.15;;
36827;SDS011;22766;48.042;11.192;2023-12-07T13:53:20;1.88;;;1.00;;
36827;SDS011;22766;48.042;11.192;2023-12-07T13:55:48;1.67;;;0.93;;
36827;SDS011;22766;48.042;11.192;2023-12-07T13:58:17;1.67;;;0.77;;
36827;SDS011;22766;48.042;11.192;2023-12-07T14:00:44;1.15;;;0.90;;
36827;SDS011;22766;48.042;11.192;2023-12-07T14:03:12;2.22;;;0.88;;
36827;SDS011;22766;48.042;11.192;2023-12-07T14:05:39;1.95;;;0.80;;
36827;SDS011;22766;48.042;11.192;2023-12-07T14:08:06;1.23;;;0.70;;
36827;SDS011;22766;48.042;11.192;2023-12-07T14:10:34;2.05;;;0.80;;
36827;SDS011;22766;48.042;11.192;2023-12-07T14:13:02;1.60;;;1.10;;
36827;SDS011;22766;48.042;11.192;2023-12-07T14:15:29;1.65;;;0.70;;
36827;SDS011;22766;48.042;11.192;2023-12-07T14:18:09;2.85;;;1.10;;
36827;SDS011;22766;48.042;11.192;2023-12-07T14:20:37;1.13;;;0.80;;
36827;SDS011;22766;48.042;11.192;2023-12-07T14:23:24;0.77;;;0.40;;
36827;SDS011;22766;48.042;11.192;2023-12-07T14:25:50;0.95;;;0.85;;
36827;SDS011;22766;48.042;11.192;2023-12-07T14:28:18;1.20;;;0.85;;
36827;SDS011;22766;48.042;11.192;2023-12-07T14:30:45;1.55;;;0.80;;
36827;SDS011;22766;48.042;11.192;2023-12-07T14:33:12;2.17;;;0.85;;
36827;SDS011;22766;48.042;11.192;2023-12-07T14:35:39;2.60;;;0.90;;
36827;SDS011;22766;48.042;11.192;2023-12-07T14:38:06;1.25;;;0.90;;
36827;SDS011;22766;48.042;11.192;2023-12-07T14:40:32;2.55;;;1.00;;
36827;SDS011;22766;48.042;11.192;2023-12-07T14:43:01;1.20;;;0.75;;
36827;SDS011;22766;48.042;11.192;2023-12-07T14:45:27;3.30;;;1.42;;